Time;durP1;ratioP1;P1;durP2;ratioP2;P2;SDS_P1;SDS_P2;PMS_P1;PMS_P2;Temp;Humidity;BMP_temperature;BMP_pressure;BME280_temperature;BME280_humidity;BME280_pressure;Samples;Min_cycle;Max_cycle;Signal;HPM_P1;HPM_P2
2023/09/04 00:00:25;;;;;;;6.20;5.60;;;13.50;99.90;;;;;;5033172;28;20437;-59
2023/09/04 00:02:53;;;;;;;6.50;5.90;;;13.50;99.90;;;;;;5033010;28;20518;-59
2023/09/04 00:05:20;;;;;;;6.37;5.77;;;13.50;99.90;;;;;;5032640;28;20747;-59
2023/09/04 00:07:47;;;;;;;7.67;6.87;;;13.50;99.90;;;;;;5032736;28;20493;-58
2023/09/04 00:10:14;;;;;;;7.33;6.50;;;13.50;99.90;;;;;;5032930;28;20441;-59
2023/09/04 00:12:40;;;;;;;8.57;6.17;;;13.40;99.90;;;;;;5032807;28;20448;-59
2023/09/04 00:15:08;;;;;;;7.80;6.70;;;13.40;99.90;;;;;;5032406;28;20947;-58
2023/09/04 00:17:35;;;;;;;7.40;6.70;;;13.40;99.90;;;;;;5032650;28;20564;-60
2023/09/04 00:20:04;;;;;;;6.60;6.00;;;13.40;99.90;;;;;;5032791;28;20448;-58
2023/09/04 00:22:31;;;;;;;6.47;5.93;;;13.40;99.90;;;;;;5033010;28;20539;-59
2023/09/04 00:24:58;;;;;;;7.60;6.20;;;13.40;99.90;;;;;;5033054;28;20441;-59
2023/09/04 00:27:26;;;;;;;7.27;6.10;;;13.30;99.90;;;;;;5034071;28;20543;-59
2023/09/04 00:29:52;;;;;;;6.47;5.77;;;13.30;99.90;;;;;;5037730;28;20444;-58
2023/09/04 00:32:19;;;;;;;7.10;5.93;;;13.30;99.90;;;;;;5037537;28;20447;-59
2023/09/04 00:34:46;;;;;;;6.70;6.13;;;13.30;99.90;;;;;;5036570;28;20448;-59
2023/09/04 00:37:14;;;;;;;6.37;5.73;;;13.30;99.90;;;;;;5036996;28;20480;-60
2023/09/04 00:39:41;;;;;;;9.30;5.87;;;13.20;99.90;;;;;;5037346;28;20437;-59
2023/09/04 00:42:10;;;;;;;6.40;5.80;;;13.20;99.90;;;;;;5036814;28;20456;-59
2023/09/04 00:44:36;;;;;;;6.60;6.00;;;13.20;99.90;;;;;;5036783;28;20506;-60
2023/09/04 00:47:04;;;;;;;8.07;6.80;;;13.20;99.90;;;;;;5036697;28;20476;-59
2023/09/04 00:49:31;;;;;;;7.10;6.50;;;13.20;99.90;;;;;;5036499;28;20456;-59
2023/09/04 00:51:58;;;;;;;7.07;5.93;;;13.20;99.90;;;;;;5036498;28;20448;-59
2023/09/04 00:54:28;;;;;;;6.50;5.90;;;13.20;99.90;;;;;;5036363;28;20452;-59
2023/09/04 00:56:54;;;;;;;6.90;6.20;;;13.20;99.90;;;;;;5036223;28;20490;-58
2023/09/04 00:59:24;;;;;;;7.40;6.77;;;13.20;99.90;;;;;;5036059;28;20475;-58
2023/09/04 01:01:51;;;;;;;6.23;5.73;;;13.10;99.90;;;;;;5036196;28;20443;-59
2023/09/04 01:04:20;;;;;;;7.37;6.70;;;13.10;99.90;;;;;;5035985;28;20437;-59
2023/09/04 01:06:47;;;;;;;6.67;6.07;;;13.10;99.90;;;;;;5036225;28;20536;-58
2023/09/04 01:09:13;;;;;;;7.10;6.50;;;13.00;99.90;;;;;;5035730;28;20559;-58
2023/09/04 01:11:47;;;;;;;7.30;6.60;;;13.00;99.90;;;;;;5036255;28;20812;-60
2023/09/04 01:14:17;;;;;;;8.13;6.77;;;13.00;99.90;;;;;;5036238;28;20421;-59
2023/09/04 01:16:45;;;;;;;7.63;6.93;;;13.00;99.90;;;;;;5036108;28;20461;-58
2023/09/04 01:19:12;;;;;;;6.90;6.30;;;13.00;99.90;;;;;;5035821;28;20509;-58
2023/09/04 01:21:40;;;;;;;7.33;6.60;;;12.90;99.90;;;;;;5035893;28;20451;-58
2023/09/04 01:24:08;;;;;;;7.30;6.60;;;12.90;99.90;;;;;;5035972;28;20931;-58
2023/09/04 01:26:39;;;;;;;6.73;6.13;;;12.90;99.90;;;;;;5036019;28;20780;-58
2023/09/04 01:29:13;;;;;;;7.00;6.20;;;12.90;99.90;;;;;;5035304;28;20468;-59
2023/09/04 01:31:47;;;;;;;7.50;6.77;;;12.80;99.90;;;;;;5036469;28;20436;-59
2023/09/04 01:34:18;;;;;;;7.10;6.50;;;12.80;99.90;;;;;;5035789;28;20431;-58
2023/09/04 01:36:49;;;;;;;8.33;7.47;;;12.80;99.90;;;;;;5035856;28;20432;-58
2023/09/04 01:39:16;;;;;;;6.53;5.83;;;12.80;99.90;;;;;;5035207;28;20461;-58
2023/09/04 01:41:43;;;;;;;9.00;6.93;;;12.80;99.90;;;;;;5035616;28;20440;-59
2023/09/04 01:44:10;;;;;;;7.40;6.70;;;12.70;99.90;;;;;;5035588;28;20448;-59
2023/09/04 01:46:36;;;;;;;7.50;6.67;;;12.80;99.90;;;;;;5035733;28;20440;-59
2023/09/04 01:49:04;;;;;;;7.67;6.53;;;12.80;99.90;;;;;;5035711;28;20461;-58
2023/09/04 01:51:30;;;;;;;7.17;6.47;;;12.70;99.90;;;;;;5035611;28;20445;-58
2023/09/04 01:53:58;;;;;;;7.07;6.47;;;12.70;99.90;;;;;;5035296;28;20448;-58
2023/09/04 01:56:25;;;;;;;7.00;6.30;;;12.70;99.90;;;;;;5034991;28;20817;-59
2023/09/04 01:58:52;;;;;;;7.53;6.77;;;12.70;99.90;;;;;;5035199;28;20503;-58
2023/09/04 02:01:19;;;;;;;7.53;6.70;;;12.70;99.90;;;;;;5035153;28;20444;-59
2023/09/04 02:03:54;;;;;;;11.90;6.70;;;12.60;99.90;;;;;;5035025;28;20441;-59
2023/09/04 02:06:21;;;;;;;7.70;6.57;;;12.60;99.90;;;;;;5034985;28;20889;-60
2023/09/04 02:08:47;;;;;;;7.50;6.80;;;12.60;99.90;;;;;;5034624;28;20978;-58
2023/09/04 02:11:15;;;;;;;7.40;6.77;;;12.60;99.90;;;;;;5035074;28;20452;-59
2023/09/04 02:13:45;;;;;;;8.20;6.77;;;12.60;99.90;;;;;;5034975;28;20445;-60
2023/09/04 02:16:12;;;;;;;7.87;6.77;;;12.50;99.90;;;;;;5034785;28;20444;-58
2023/09/04 02:18:39;;;;;;;7.33;6.67;;;12.50;99.90;;;;;;5034765;28;20499;-58
2023/09/04 02:21:06;;;;;;;8.93;7.10;;;12.50;99.90;;;;;;5034857;28;20499;-58
2023/09/04 02:23:32;;;;;;;7.80;7.00;;;12.50;99.90;;;;;;5034936;28;20444;-59
2023/09/04 02:25:59;;;;;;;7.67;6.90;;;12.50;99.90;;;;;;5035014;28;20452;-59
2023/09/04 02:28:27;;;;;;;7.73;7.13;;;12.50;99.90;;;;;;5034620;28;20469;-58
2023/09/04 02:30:54;;;;;;;8.03;7.23;;;12.50;99.90;;;;;;5034263;28;20437;-59
2023/09/04 02:33:21;;;;;;;8.33;7.53;;;12.50;99.90;;;;;;5034593;28;20440;-58
2023/09/04 02:35:47;;;;;;;9.20;8.30;;;12.50;99.90;;;;;;5034448;28;20506;-58
2023/09/04 02:38:14;;;;;;;7.83;7.10;;;12.50;99.90;;;;;;5034177;28;20484;-58
2023/09/04 02:40:41;;;;;;;7.17;6.57;;;12.40;99.90;;;;;;5034371;28;20436;-58
2023/09/04 02:43:08;;;;;;;8.40;7.60;;;12.50;99.90;;;;;;5034498;28;20539;-58
2023/09/04 02:45:36;;;;;;;8.13;7.33;;;12.40;99.90;;;;;;5034379;28;20464;-57
2023/09/04 02:48:03;;;;;;;7.93;7.13;;;12.40;99.90;;;;;;5034704;28;20464;-58
2023/09/04 02:50:30;;;;;;;7.23;6.60;;;12.40;99.90;;;;;;5033374;28;20523;-59
2023/09/04 02:52:57;;;;;;;8.10;7.40;;;12.40;99.90;;;;;;5033971;28;20448;-58
2023/09/04 02:55:23;;;;;;;8.07;7.37;;;12.40;99.90;;;;;;5034060;28;20760;-58
2023/09/04 02:57:50;;;;;;;9.10;7.50;;;12.40;99.90;;;;;;5033838;28;20488;-58
2023/09/04 03:00:17;;;;;;;7.73;7.03;;;12.40;99.90;;;;;;5033754;28;20437;-58
2023/09/04 03:02:45;;;;;;;8.10;7.17;;;12.40;99.90;;;;;;5035151;28;20456;-59
2023/09/04 03:05:12;;;;;;;9.20;8.30;;;12.30;99.90;;;;;;5033901;28;20961;-59
2023/09/04 03:07:39;;;;;;;8.10;7.40;;;12.30;99.90;;;;;;5033950;28;20479;-58
2023/09/04 03:10:06;;;;;;;8.80;7.90;;;12.30;99.90;;;;;;5033834;28;20953;-58
2023/09/04 03:12:34;;;;;;;8.93;8.00;;;12.30;99.90;;;;;;5033800;28;20449;-59
2023/09/04 03:15:01;;;;;;;8.60;7.90;;;12.30;99.90;;;;;;5033959;28;20443;-58
2023/09/04 03:17:32;;;;;;;9.30;8.40;;;12.20;99.90;;;;;;5033695;28;20484;-59
2023/09/04 03:20:04;;;;;;;8.20;7.50;;;12.20;99.90;;;;;;5033828;28;20444;-57
2023/09/04 03:22:31;;;;;;;8.67;7.77;;;12.20;99.90;;;;;;5033911;28;20457;-58
2023/09/04 03:24:57;;;;;;;9.73;8.53;;;12.10;99.90;;;;;;5033568;28;20973;-58
2023/09/04 03:27:24;;;;;;;9.87;7.40;;;12.10;99.90;;;;;;5033387;28;20445;-58
2023/09/04 03:29:51;;;;;;;9.17;8.17;;;12.10;99.90;;;;;;5033676;28;20425;-58
2023/09/04 03:32:17;;;;;;;8.63;7.67;;;12.10;99.90;;;;;;5033175;28;20921;-58
2023/09/04 03:34:44;;;;;;;9.60;8.57;;;12.10;99.90;;;;;;5032951;28;20449;-59
2023/09/04 03:37:12;;;;;;;8.37;7.57;;;12.10;99.90;;;;;;5033164;28;20444;-57
2023/09/04 03:39:39;;;;;;;9.13;8.20;;;12.10;99.90;;;;;;5033544;28;20440;-59
2023/09/04 03:42:07;;;;;;;9.30;8.40;;;12.00;99.90;;;;;;5033193;28;20899;-58
2023/09/04 03:44:34;;;;;;;9.93;8.50;;;12.00;99.90;;;;;;5033028;28;20444;-59
2023/09/04 03:47:01;;;;;;;8.90;8.00;;;12.00;99.90;;;;;;5033199;28;20444;-59
2023/09/04 03:49:28;;;;;;;10.70;8.93;;;12.00;99.90;;;;;;5033062;28;20465;-59
2023/09/04 03:51:54;;;;;;;9.27;8.37;;;12.00;99.90;;;;;;5033431;28;20437;-59
2023/09/04 03:54:23;;;;;;;8.97;8.17;;;12.00;99.90;;;;;;5033243;28;20437;-59
2023/09/04 03:56:50;;;;;;;13.60;9.23;;;12.00;99.90;;;;;;5033239;28;20463;-59
2023/09/04 03:59:16;;;;;;;8.50;7.70;;;12.00;99.90;;;;;;5032777;28;20480;-59
2023/09/04 04:01:43;;;;;;;9.03;8.13;;;12.00;99.90;;;;;;5032644;28;20441;-59
2023/09/04 04:04:10;;;;;;;9.43;8.53;;;11.90;99.90;;;;;;5032806;28;20965;-57
2023/09/04 04:06:37;;;;;;;8.30;7.50;;;12.00;99.90;;;;;;5032685;28;20815;-57
2023/09/04 04:12:10;;;;;;;12.27;9.70;;;11.90;99.90;;;;;;5090865;27;20557;-60
2023/09/04 04:14:36;;;;;;;11.10;10.00;;;11.90;99.90;;;;;;5090439;28;20442;-60
2023/09/04 04:17:03;;;;;;;9.53;8.63;;;11.90;99.90;;;;;;5090164;28;20445;-60
2023/09/04 04:19:30;;;;;;;9.80;8.67;;;11.90;99.90;;;;;;5090072;28;20830;-60
2023/09/04 04:21:57;;;;;;;11.37;10.20;;;11.90;99.90;;;;;;5090190;28;20446;-61
2023/09/04 04:24:24;;;;;;;10.30;9.40;;;11.90;99.90;;;;;;5090464;28;20442;-60
2023/09/04 04:26:50;;;;;;;11.67;10.03;;;11.90;99.90;;;;;;5090379;28;20460;-60
2023/09/04 04:29:18;;;;;;;9.97;8.93;;;11.90;99.90;;;;;;5090052;28;20466;-60
2023/09/04 04:31:46;;;;;;;11.80;10.50;;;11.90;99.90;;;;;;5090821;28;20478;-60
2023/09/04 04:34:12;;;;;;;13.10;10.60;;;11.90;99.90;;;;;;5090042;28;20478;-60
2023/09/04 04:36:39;;;;;;;11.93;8.93;;;11.90;99.90;;;;;;5089713;28;20943;-60
2023/09/04 04:39:06;;;;;;;14.03;10.30;;;11.90;99.90;;;;;;5090711;28;20464;-59
2023/09/04 04:41:33;;;;;;;11.67;10.50;;;11.90;99.90;;;;;;5089977;28;20430;-60
2023/09/04 04:44:00;;;;;;;10.90;9.80;;;11.90;99.90;;;;;;5090089;28;20464;-60
2023/09/04 04:46:28;;;;;;;10.43;9.43;;;11.90;99.90;;;;;;5089583;28;20930;-59
2023/09/04 04:48:55;;;;;;;10.63;9.63;;;11.90;99.90;;;;;;5089719;28;20466;-60
2023/09/04 04:51:22;;;;;;;11.33;9.80;;;11.90;99.90;;;;;;5089754;28;20478;-60
2023/09/04 04:53:48;;;;;;;13.30;9.93;;;12.00;99.90;;;;;;5090116;28;20446;-60
2023/09/04 04:56:15;;;;;;;10.80;9.70;;;12.00;99.90;;;;;;5089607;28;20932;-60
2023/09/04 04:58:42;;;;;;;12.63;9.97;;;12.10;99.90;;;;;;5089480;28;20466;-60
2023/09/04 05:01:08;;;;;;;10.93;9.13;;;12.20;99.90;;;;;;5089027;28;20808;-60
2023/09/04 05:03:36;;;;;;;10.50;9.47;;;12.30;99.90;;;;;;5089700;28;20442;-60
2023/09/04 05:06:03;;;;;;;11.00;10.00;;;12.40;99.90;;;;;;5089467;28;20438;-60
2023/09/04 05:08:30;;;;;;;9.27;8.47;;;12.60;99.90;;;;;;5089273;28;20462;-60
2023/09/04 05:11:03;;;;;;;11.73;8.13;;;12.70;99.90;;;;;;5088958;28;20482;-60
2023/09/04 05:13:30;;;;;;;8.80;7.90;;;12.90;99.90;;;;;;5089438;28;20469;-60
2023/09/04 05:16:02;;;;;;;9.00;7.70;;;13.10;99.90;;;;;;5089351;28;20446;-59
2023/09/04 05:18:28;;;;;;;8.70;6.93;;;13.20;99.90;;;;;;5089147;28;20512;-60
2023/09/04 05:20:57;;;;;;;8.03;6.80;;;13.30;99.90;;;;;;5089184;28;20434;-60
2023/09/04 05:23:23;;;;;;;7.83;7.13;;;13.30;99.90;;;;;;5075982;28;20928;-60
2023/09/04 05:25:52;;;;;;;7.93;6.50;;;13.40;99.90;;;;;;5075573;28;20446;-60
2023/09/04 05:28:19;;;;;;;8.10;7.20;;;13.40;99.90;;;;;;5075369;28;20470;-60
2023/09/04 05:30:46;;;;;;;8.10;7.40;;;13.30;99.90;;;;;;5075188;28;21010;-59
2023/09/04 05:33:12;;;;;;;8.30;7.60;;;13.30;99.90;;;;;;5075525;28;20446;-58
2023/09/04 05:35:39;;;;;;;9.00;7.00;;;13.30;99.90;;;;;;5075652;28;20450;-60
2023/09/04 05:38:07;;;;;;;9.10;7.37;;;13.30;99.90;;;;;;5075723;28;20470;-59
2023/09/04 05:40:34;;;;;;;8.10;7.40;;;13.30;99.90;;;;;;5077002;28;20787;-60
2023/09/04 05:43:01;;;;;;;10.53;8.27;;;13.30;99.90;;;;;;5075716;28;20500;-59
2023/09/04 05:45:28;;;;;;;7.63;6.93;;;13.40;99.90;;;;;;5075821;28;20530;-59
2023/09/04 05:47:54;;;;;;;12.20;7.43;;;13.50;99.90;;;;;;5075351;28;20588;-58
2023/09/04 05:50:21;;;;;;;8.07;6.90;;;13.50;99.90;;;;;;5075604;28;20442;-60
2023/09/04 05:52:48;;;;;;;7.90;7.20;;;13.60;99.90;;;;;;5075882;28;20439;-60
2023/09/04 05:55:16;;;;;;;7.33;6.73;;;13.60;99.90;;;;;;5075937;28;20435;-58
2023/09/04 05:57:43;;;;;;;7.87;7.07;;;13.60;99.90;;;;;;5076043;28;20455;-60
2023/09/04 06:00:11;;;;;;;7.50;6.77;;;13.80;99.90;;;;;;5076162;28;20447;-61
2023/09/04 06:02:38;;;;;;;6.97;6.37;;;13.80;99.90;;;;;;5075642;28;20841;-60
2023/09/04 06:05:05;;;;;;;8.10;6.47;;;13.90;99.90;;;;;;5076199;28;20454;-60
2023/09/04 06:07:32;;;;;;;12.40;7.03;;;14.00;99.90;;;;;;5076361;28;20810;-59
2023/09/04 06:09:59;;;;;;;7.47;6.50;;;14.00;99.90;;;;;;5075628;28;20442;-59
2023/09/04 06:12:27;;;;;;;7.97;7.17;;;14.10;99.90;;;;;;5075420;28;20463;-60
2023/09/04 06:14:54;;;;;;;9.40;6.30;;;14.20;99.90;;;;;;5074867;28;20443;-62
2023/09/04 06:17:20;;;;;;;7.03;6.43;;;14.30;99.90;;;;;;5074275;28;20799;-59
2023/09/04 06:19:47;;;;;;;6.63;5.93;;;14.40;99.90;;;;;;5074430;28;20457;-61
2023/09/04 06:22:14;;;;;;;7.80;7.10;;;14.40;99.90;;;;;;5074390;28;20967;-60
2023/09/04 06:24:40;;;;;;;6.07;5.50;;;14.50;99.90;;;;;;5075108;28;20443;-60
2023/09/04 06:27:07;;;;;;;7.13;6.53;;;14.60;99.90;;;;;;5075343;28;20446;-60
2023/09/04 06:29:35;;;;;;;6.97;6.30;;;14.60;99.90;;;;;;5076941;28;21003;-61
2023/09/04 06:32:02;;;;;;;8.17;7.37;;;14.70;99.90;;;;;;5074455;28;20893;-60
2023/09/04 06:34:29;;;;;;;7.60;7.00;;;14.80;99.90;;;;;;5074749;28;20443;-61
2023/09/04 06:36:56;;;;;;;8.13;7.33;;;14.90;99.90;;;;;;5074050;28;20493;-61
2023/09/04 06:39:22;;;;;;;8.23;6.40;;;15.00;99.90;;;;;;5074409;28;20459;-60
2023/09/04 06:41:50;;;;;;;7.70;6.50;;;15.10;99.90;;;;;;5073682;28;20450;-61
2023/09/04 06:44:16;;;;;;;6.37;5.77;;;15.20;99.90;;;;;;5073911;28;20442;-61
2023/09/04 06:46:44;;;;;;;6.53;5.97;;;15.40;99.90;;;;;;5074145;28;20435;-61
2023/09/04 06:49:11;;;;;;;5.83;4.40;;;15.50;99.90;;;;;;5074178;28;20466;-60
2023/09/04 06:51:39;;;;;;;6.83;5.53;;;15.50;99.90;;;;;;5073642;28;20479;-61
2023/09/04 06:54:06;;;;;;;6.63;5.30;;;15.70;99.90;;;;;;5074148;28;20473;-60
2023/09/04 06:56:32;;;;;;;6.37;5.43;;;15.80;99.90;;;;;;5074031;28;20533;-58
2023/09/04 06:58:59;;;;;;;6.67;6.00;;;15.90;99.90;;;;;;5073723;28;20973;-59
2023/09/04 07:01:26;;;;;;;6.50;5.37;;;16.00;99.90;;;;;;5074144;28;20431;-61
2023/09/04 07:03:54;;;;;;;6.50;5.50;;;16.20;99.90;;;;;;5074040;28;20435;-61
2023/09/04 07:06:21;;;;;;;7.27;5.60;;;16.30;99.90;;;;;;5074161;28;20473;-59
2023/09/04 07:08:47;;;;;;;9.10;5.57;;;16.40;99.90;;;;;;5073844;28;20463;-59
2023/09/04 07:11:14;;;;;;;10.33;5.00;;;16.50;99.90;;;;;;5073226;28;20637;-59
2023/09/04 07:13:41;;;;;;;5.57;5.03;;;16.60;99.90;;;;;;5074000;28;20443;-61
2023/09/04 07:16:07;;;;;;;5.13;4.67;;;16.70;99.90;;;;;;5075245;28;20448;-60
2023/09/04 07:18:34;;;;;;;6.10;4.97;;;16.80;99.90;;;;;;5075308;28;20459;-60
2023/09/04 07:21:02;;;;;;;5.83;4.23;;;16.90;99.90;;;;;;5074776;28;20439;-60
2023/09/04 07:23:29;;;;;;;5.70;4.60;;;17.00;99.90;;;;;;5073399;28;20513;-59
2023/09/04 07:25:57;;;;;;;8.60;4.70;;;17.10;99.90;;;;;;5072979;28;20952;-61
2023/09/04 07:28:23;;;;;;;7.70;4.40;;;17.20;99.90;;;;;;5073110;28;20490;-60
2023/09/04 07:30:50;;;;;;;5.53;4.03;;;17.30;99.90;;;;;;5073266;28;20948;-60
2023/09/04 07:33:17;;;;;;;6.60;4.23;;;17.50;99.90;;;;;;5073677;28;20439;-60
2023/09/04 07:35:44;;;;;;;6.20;4.07;;;17.60;99.90;;;;;;5073740;28;20796;-59
2023/09/04 07:38:12;;;;;;;5.30;3.70;;;17.70;99.90;;;;;;5073454;28;20969;-60
2023/09/04 07:40:39;;;;;;;5.90;4.13;;;17.80;99.90;;;;;;5073412;28;20443;-60
2023/09/04 07:43:06;;;;;;;4.57;3.80;;;17.90;99.90;;;;;;5073312;28;20431;-60
2023/09/04 07:45:33;;;;;;;3.30;3.00;;;18.00;99.90;;;;;;5073295;28;20501;-60
2023/09/04 07:48:00;;;;;;;4.00;3.60;;;18.10;99.90;;;;;;5072989;28;20483;-59
2023/09/04 07:50:26;;;;;;;3.00;2.80;;;18.20;99.90;;;;;;5072975;28;20450;-60
2023/09/04 07:52:56;;;;;;;4.30;3.40;;;18.40;99.90;;;;;;5072896;28;20585;-60
2023/09/04 07:55:24;;;;;;;5.47;3.47;;;18.50;99.90;;;;;;5073099;28;20446;-60
2023/09/04 07:57:50;;;;;;;3.30;3.00;;;18.60;99.90;;;;;;5072849;28;20458;-60
2023/09/04 08:00:21;;;;;;;4.43;3.20;;;18.70;99.90;;;;;;5073322;28;20454;-59
2023/09/04 08:02:48;;;;;;;3.23;2.47;;;18.80;99.90;;;;;;5074616;28;20423;-60
2023/09/04 08:05:15;;;;;;;7.47;2.60;;;18.90;99.90;;;;;;5074173;28;20466;-60
2023/09/04 08:07:42;;;;;;;4.07;3.27;;;19.00;99.90;;;;;;5073901;28;20463;-60
2023/09/04 08:10:09;;;;;;;4.27;2.57;;;19.10;99.90;;;;;;5073602;28;20454;-62
2023/09/04 08:12:37;;;;;;;3.83;2.93;;;19.20;99.90;;;;;;5073156;28;20975;-61
2023/09/04 08:15:07;;;;;;;3.30;2.83;;;19.30;99.90;;;;;;5073597;28;20447;-61
2023/09/04 08:17:33;;;;;;;6.10;4.13;;;19.40;99.90;;;;;;5073299;28;20463;-60
2023/09/04 08:20:00;;;;;;;3.63;3.00;;;19.50;99.90;;;;;;5074013;28;20798;-60
2023/09/04 08:22:27;;;;;;;4.10;2.80;;;19.60;99.90;;;;;;5072912;28;20445;-61
2023/09/04 08:24:54;;;;;;;5.73;2.80;;;19.70;99.90;;;;;;5072890;28;20449;-62
2023/09/04 08:27:21;;;;;;;4.90;3.10;;;19.80;99.60;;;;;;5073641;28;20435;-61
2023/09/04 08:29:52;;;;;;;4.10;2.43;;;19.90;98.90;;;;;;5073512;28;20435;-62
2023/09/04 08:32:19;;;;;;;4.13;2.97;;;20.00;98.20;;;;;;5074338;28;20471;-62
2023/09/04 08:34:46;;;;;;;4.27;2.70;;;20.10;97.60;;;;;;5073819;28;20826;-62
2023/09/04 08:37:12;;;;;;;3.63;2.83;;;20.20;97.00;;;;;;5073408;28;20936;-61
2023/09/04 08:39:39;;;;;;;3.63;2.50;;;20.30;96.50;;;;;;5073506;28;20439;-62
2023/09/04 08:42:07;;;;;;;3.00;2.67;;;20.40;95.80;;;;;;5073092;28;20443;-62
2023/09/04 08:44:35;;;;;;;2.83;2.40;;;20.40;95.20;;;;;;5074021;28;20439;-61
2023/09/04 08:47:06;;;;;;;2.47;2.23;;;20.50;94.50;;;;;;5074030;28;20450;-62
2023/09/04 08:49:32;;;;;;;3.30;2.40;;;20.50;93.60;;;;;;5075874;28;20459;-63
2023/09/04 08:52:01;;;;;;;4.93;2.40;;;20.60;93.20;;;;;;5075933;28;21062;-62
2023/09/04 08:54:28;;;;;;;2.93;2.27;;;20.60;92.20;;;;;;5074391;28;20932;-62
2023/09/04 08:56:55;;;;;;;2.90;2.60;;;20.70;91.60;;;;;;5074803;28;20439;-61
2023/09/04 08:59:22;;;;;;;2.50;2.30;;;20.70;90.70;;;;;;5077568;28;20462;-62
2023/09/04 09:01:50;;;;;;;3.37;2.10;;;20.80;90.10;;;;;;5076545;28;20445;-62
2023/09/04 09:04:20;;;;;;;2.60;2.40;;;20.80;89.00;;;;;;5076135;28;20936;-62
2023/09/04 09:06:48;;;;;;;2.67;2.20;;;20.90;88.20;;;;;;5076163;28;20927;-62
2023/09/04 09:09:16;;;;;;;3.43;2.70;;;21.00;87.10;;;;;;5076018;28;20859;-62
2023/09/04 09:11:43;;;;;;;7.03;2.97;;;21.10;86.30;;;;;;5075843;28;20995;-62
2023/09/04 09:14:11;;;;;;;4.40;2.30;;;21.20;85.70;;;;;;5076547;28;20446;-61
2023/09/04 09:16:37;;;;;;;2.60;2.40;;;21.30;84.80;;;;;;5075824;28;20449;-62
2023/09/04 09:19:04;;;;;;;4.07;2.60;;;21.30;83.70;;;;;;5075911;28;20455;-62
2023/09/04 09:21:33;;;;;;;2.80;2.43;;;21.40;82.70;;;;;;5075699;28;20482;-62
2023/09/04 09:24:16;;;;;;;2.93;2.20;;;21.50;81.60;;;;;;5076949;28;20439;-61
2023/09/04 09:26:44;;;;;;;4.70;2.57;;;21.60;80.10;;;;;;5075505;28;20412;-61
2023/09/04 09:29:13;;;;;;;2.10;1.90;;;21.70;79.20;;;;;;5075648;28;20459;-62
2023/09/04 09:31:42;;;;;;;2.63;2.10;;;21.70;78.00;;;;;;5075363;28;20527;-62
2023/09/04 09:34:10;;;;;;;3.50;2.03;;;21.80;76.90;;;;;;5075204;28;20914;-61
2023/09/04 09:36:39;;;;;;;3.50;2.47;;;21.90;75.90;;;;;;5075678;28;20439;-61
2023/09/04 09:39:06;;;;;;;2.80;2.50;;;21.90;75.20;;;;;;5076247;28;20459;-61
2023/09/04 09:41:33;;;;;;;2.27;2.00;;;22.00;74.80;;;;;;5075809;28;20854;-63
2023/09/04 09:44:01;;;;;;;4.17;2.40;;;22.00;74.10;;;;;;5075794;28;20435;-60
2023/09/04 09:46:29;;;;;;;2.80;2.37;;;22.00;73.50;;;;;;5076046;28;20447;-62
2023/09/04 09:48:56;;;;;;;2.67;2.23;;;22.10;73.30;;;;;;5075362;28;20463;-62
2023/09/04 09:51:23;;;;;;;2.37;2.17;;;22.10;72.80;;;;;;5075388;28;20952;-63
2023/09/04 09:53:53;;;;;;;2.27;2.07;;;22.20;72.30;;;;;;5075486;28;20566;-62
2023/09/04 09:56:20;;;;;;;5.00;2.33;;;22.20;72.60;;;;;;5075047;28;20446;-62
2023/09/04 09:58:48;;;;;;;3.17;2.30;;;22.30;71.50;;;;;;5074936;28;20463;-61
2023/09/04 10:01:16;;;;;;;2.80;2.23;;;22.30;70.90;;;;;;5075401;28;20446;-62
2023/09/04 10:03:46;;;;;;;2.77;2.40;;;22.40;70.20;;;;;;5075093;28;20436;-62
2023/09/04 10:06:22;;;;;;;2.80;2.07;;;22.40;70.10;;;;;;5074638;28;20967;-62
2023/09/04 10:08:53;;;;;;;4.53;2.60;;;22.50;69.80;;;;;;5075308;28;20463;-64
2023/09/04 10:11:19;;;;;;;7.00;3.43;;;22.60;69.40;;;;;;5074528;28;20455;-63
2023/09/04 10:13:53;;;;;;;2.67;2.10;;;22.60;69.10;;;;;;5075263;28;20482;-61
2023/09/04 10:16:29;;;;;;;2.40;2.20;;;22.70;69.00;;;;;;5074633;28;20789;-62
2023/09/04 10:18:59;;;;;;;2.47;2.27;;;22.80;68.80;;;;;;5074777;28;20454;-61
2023/09/04 10:21:30;;;;;;;4.53;2.57;;;22.90;68.30;;;;;;5074654;28;20439;-62
2023/09/04 10:24:03;;;;;;;4.80;2.53;;;23.00;67.80;;;;;;5074641;28;20419;-60
2023/09/04 10:26:36;;;;;;;2.80;2.30;;;23.10;67.50;;;;;;5074297;28;20419;-62
2023/09/04 10:29:05;;;;;;;2.30;2.10;;;23.20;67.00;;;;;;5074690;28;20451;-62
2023/09/04 10:31:34;;;;;;;3.43;2.40;;;23.30;66.60;;;;;;5074656;28;20945;-62
2023/09/04 10:34:02;;;;;;;3.17;2.87;;;23.30;66.00;;;;;;5074101;28;21016;-62
2023/09/04 10:36:29;;;;;;;3.43;2.40;;;23.30;65.40;;;;;;5074990;28;20451;-62
2023/09/04 10:38:58;;;;;;;4.00;2.50;;;23.30;65.00;;;;;;5074201;28;20989;-62
2023/09/04 10:41:25;;;;;;;2.20;2.00;;;23.30;64.50;;;;;;5074931;28;20445;-62
2023/09/04 10:43:52;;;;;;;4.10;2.40;;;23.30;64.40;;;;;;5074987;28;20925;-59
2023/09/04 10:46:18;;;;;;;3.50;2.30;;;23.40;64.20;;;;;;5074478;28;20446;-62
2023/09/04 10:48:47;;;;;;;3.33;2.17;;;23.50;63.80;;;;;;5074089;28;20458;-63
2023/09/04 10:51:27;;;;;;;2.90;2.57;;;23.60;63.10;;;;;;5074361;28;20465;-62
2023/09/04 10:53:54;;;;;;;4.37;2.67;;;23.70;62.30;;;;;;5074152;28;20479;-61
2023/09/04 10:56:22;;;;;;;6.13;2.30;;;23.60;61.80;;;;;;5074276;28;20454;-61
2023/09/04 10:58:59;;;;;;;6.40;3.00;;;23.60;61.60;;;;;;5073958;28;20459;-62
2023/09/04 11:01:37;;;;;;;5.27;2.50;;;23.60;61.30;;;;;;5074870;28;20442;-62
2023/09/04 11:04:05;;;;;;;2.47;2.23;;;23.50;61.20;;;;;;5073945;28;20423;-63
2023/09/04 11:06:34;;;;;;;4.57;2.50;;;23.50;61.50;;;;;;5074060;28;20443;-63
2023/09/04 11:09:02;;;;;;;2.70;2.40;;;23.60;61.40;;;;;;5074840;28;20770;-63
2023/09/04 11:11:31;;;;;;;4.30;2.20;;;23.70;61.40;;;;;;5074619;28;20474;-62
2023/09/04 11:14:00;;;;;;;2.07;1.57;;;23.80;61.00;;;;;;5074213;28;20489;-62
2023/09/04 11:16:27;;;;;;;2.33;2.13;;;23.90;60.60;;;;;;5074429;28;20513;-61
2023/09/04 11:19:07;;;;;;;3.00;2.10;;;24.10;60.00;;;;;;5073661;28;20459;-62
2023/09/04 11:21:35;;;;;;;2.87;2.00;;;24.10;59.50;;;;;;5073263;28;20967;-62
2023/09/04 11:24:04;;;;;;;4.77;2.30;;;24.20;59.30;;;;;;5073631;28;20929;-60
2023/09/04 11:26:33;;;;;;;2.70;1.93;;;24.20;59.20;;;;;;5073950;28;20827;-61
2023/09/04 11:29:01;;;;;;;5.10;2.10;;;24.30;59.10;;;;;;5075702;28;20858;-62
2023/09/04 11:31:28;;;;;;;3.20;2.43;;;24.40;58.80;;;;;;5075581;28;20444;-63
2023/09/04 11:33:56;;;;;;;3.10;2.07;;;24.50;58.40;;;;;;5076957;28;20479;-61
2023/09/04 11:36:23;;;;;;;2.50;1.90;;;24.40;58.10;;;;;;5075793;28;20450;-62
2023/09/04 11:39:05;;;;;;;2.03;1.83;;;24.40;57.90;;;;;;5072985;28;20466;-62
2023/09/04 11:41:33;;;;;;;2.33;1.90;;;24.40;57.70;;;;;;5073527;28;20423;-63
2023/09/04 11:44:00;;;;;;;3.20;2.23;;;24.40;57.40;;;;;;5073534;28;20913;-63
2023/09/04 11:46:28;;;;;;;2.67;2.00;;;24.50;57.20;;;;;;5073252;28;20451;-62
2023/09/04 11:48:55;;;;;;;2.53;2.00;;;24.50;56.80;;;;;;5072702;28;20465;-62
2023/09/04 11:51:21;;;;;;;2.23;2.03;;;24.50;56.30;;;;;;5072942;28;20446;-63
2023/09/04 11:53:48;;;;;;;2.33;1.93;;;24.60;56.20;;;;;;5073148;28;20504;-63
2023/09/04 11:56:15;;;;;;;3.40;2.50;;;24.60;56.10;;;;;;5073119;28;20445;-62
2023/09/04 11:58:43;;;;;;;3.53;2.10;;;24.70;55.90;;;;;;5073055;28;20835;-62
2023/09/04 12:01:10;;;;;;;4.73;2.30;;;24.70;55.40;;;;;;5073239;28;20514;-63
2023/09/04 12:03:37;;;;;;;2.37;2.17;;;24.60;55.50;;;;;;5072621;28;20932;-63
2023/09/04 12:06:04;;;;;;;2.60;1.77;;;24.60;55.40;;;;;;5073606;28;20440;-61
2023/09/04 12:08:31;;;;;;;3.60;2.13;;;24.70;55.40;;;;;;5073422;28;20538;-62
2023/09/04 12:10:58;;;;;;;2.40;2.20;;;24.70;54.80;;;;;;5073155;28;20546;-62
2023/09/04 12:13:24;;;;;;;2.17;1.90;;;24.70;54.60;;;;;;5072747;28;20489;-63
2023/09/04 12:15:52;;;;;;;2.60;2.03;;;24.70;54.20;;;;;;5072796;28;20963;-62
2023/09/04 12:18:22;;;;;;;2.20;2.00;;;24.70;54.00;;;;;;5072694;28;20999;-63
2023/09/04 12:20:49;;;;;;;4.60;2.10;;;24.70;54.10;;;;;;5072590;28;20875;-62
2023/09/04 12:23:15;;;;;;;5.83;2.10;;;24.70;54.00;;;;;;5072701;28;20454;-62
2023/09/04 12:25:44;;;;;;;3.40;2.10;;;24.70;53.80;;;;;;5072188;28;20782;-62
2023/09/04 12:28:13;;;;;;;2.97;1.83;;;24.70;53.80;;;;;;5072043;28;20844;-62
2023/09/04 12:30:44;;;;;;;2.20;1.90;;;24.70;53.70;;;;;;5086806;22;20518;-61
2023/09/04 12:33:13;;;;;;;2.77;1.93;;;24.70;53.60;;;;;;5036423;28;20559;-62
2023/09/04 12:35:40;;;;;;;3.40;2.50;;;24.80;53.70;;;;;;5037467;28;20452;-59
2023/09/04 12:38:07;;;;;;;6.17;2.40;;;24.90;53.70;;;;;;5037429;28;20447;-60
2023/09/04 12:40:35;;;;;;;2.40;1.90;;;25.00;53.50;;;;;;5037071;28;20992;-60
2023/09/04 12:43:03;;;;;;;2.20;1.77;;;25.10;53.30;;;;;;5037090;28;20463;-59
2023/09/04 12:45:30;;;;;;;2.70;2.00;;;25.10;53.20;;;;;;5037233;28;20475;-60
2023/09/04 12:47:59;;;;;;;2.90;2.20;;;25.20;53.20;;;;;;5037513;28;20447;-61
2023/09/04 12:50:28;;;;;;;2.43;2.23;;;25.30;53.10;;;;;;5037111;28;20514;-60